Time;durP1;ratioP1;P1;durP2;ratioP2;P2;SDS_P1;SDS_P2;PMS_P1;PMS_P2;Temp;Humidity;BMP_temperature;BMP_pressure;BME280_temperature;BME280_humidity;BME280_pressure;Samples;Min_cycle;Max_cycle;Signal;HPM_P1;HPM_P2
2021/08/01 00:02:03;;;;;;;16.07;12.27;;;14.80;99.90;;;;;;4978518;28;20458;-68
2021/08/01 00:04:31;;;;;;;13.53;12.40;;;14.80;99.90;;;;;;4977686;28;20444;-68
2021/08/01 00:07:00;;;;;;;13.17;12.00;;;14.80;99.90;;;;;;4983428;28;20488;-68
2021/08/01 00:09:27;;;;;;;13.07;11.90;;;14.80;99.90;;;;;;4984232;28;20516;-68
2021/08/01 00:11:55;;;;;;;12.53;11.47;;;14.70;99.90;;;;;;4994160;28;20496;-68
2021/08/01 00:14:22;;;;;;;13.73;12.50;;;14.80;99.90;;;;;;4995800;28;20910;-68
2021/08/01 00:16:52;;;;;;;14.23;13.00;;;14.70;99.90;;;;;;4978259;28;20878;-68
2021/08/01 00:19:20;;;;;;;13.10;11.80;;;14.70;99.90;;;;;;4978357;28;20451;-68
2021/08/01 00:21:51;;;;;;;14.27;12.70;;;14.70;99.90;;;;;;4977859;28;20436;-68
2021/08/01 00:24:18;;;;;;;14.17;12.67;;;14.70;99.90;;;;;;4991078;28;20461;-68
2021/08/01 00:26:45;;;;;;;12.97;11.77;;;14.70;99.90;;;;;;4997617;28;20472;-68
2021/08/01 00:29:14;;;;;;;13.23;12.03;;;14.80;99.90;;;;;;4997529;28;20508;-68
2021/08/01 00:31:41;;;;;;;13.13;11.67;;;14.80;99.90;;;;;;4997288;28;20832;-68
2021/08/01 00:34:10;;;;;;;12.63;11.43;;;14.80;99.90;;;;;;4998317;28;20842;-68
2021/08/01 00:36:40;;;;;;;13.07;11.97;;;14.80;99.90;;;;;;5000966;28;20492;-68
2021/08/01 00:39:13;;;;;;;13.67;12.57;;;14.80;99.90;;;;;;5001030;28;20527;-68
2021/08/01 00:41:40;;;;;;;13.50;12.30;;;14.80;99.90;;;;;;4985255;28;20461;-68
2021/08/01 00:44:10;;;;;;;13.30;12.10;;;14.80;99.90;;;;;;4981902;28;20462;-68
2021/08/01 00:46:40;;;;;;;13.73;12.57;;;14.80;99.90;;;;;;4981641;28;20795;-68
2021/08/01 00:49:08;;;;;;;12.30;11.30;;;14.80;99.90;;;;;;4981580;28;20571;-68
2021/08/01 00:51:38;;;;;;;14.20;13.00;;;14.80;99.90;;;;;;4981383;28;20501;-68
2021/08/01 00:54:05;;;;;;;13.97;12.67;;;14.80;99.90;;;;;;4981879;28;20462;-68
2021/08/01 00:56:32;;;;;;;12.60;11.60;;;14.90;99.90;;;;;;4980901;28;20474;-68
2021/08/01 00:59:00;;;;;;;14.60;13.20;;;14.90;99.90;;;;;;4981273;28;20911;-68
2021/08/01 01:01:32;;;;;;;14.27;13.00;;;14.80;99.90;;;;;;4980924;28;20977;-68
2021/08/01 01:04:12;;;;;;;14.43;13.00;;;14.80;99.90;;;;;;4980714;28;20532;-68
2021/08/01 01:06:44;;;;;;;13.73;12.50;;;14.80;99.90;;;;;;4985202;28;20505;-68
2021/08/01 01:09:19;;;;;;;14.47;12.97;;;14.80;99.90;;;;;;5000396;28;20915;-68
2021/08/01 01:11:50;;;;;;;12.53;11.43;;;14.80;99.90;;;;;;5000509;28;20496;-68
2021/08/01 01:14:21;;;;;;;16.63;11.73;;;14.80;99.90;;;;;;5000545;28;20496;-68
2021/08/01 01:16:52;;;;;;;12.67;11.40;;;14.80;99.90;;;;;;4999707;28;20523;-68
2021/08/01 01:20:03;;;;;;;12.33;11.23;;;14.80;99.90;;;;;;5000680;28;20469;-68
2021/08/01 01:22:40;;;;;;;12.50;11.33;;;14.80;99.90;;;;;;5000319;28;20465;-68
2021/08/01 01:25:15;;;;;;;12.77;11.67;;;14.80;99.90;;;;;;5000186;28;20467;-68
2021/08/01 01:27:47;;;;;;;12.33;10.97;;;14.80;99.90;;;;;;5000312;28;20503;-68
2021/08/01 01:30:17;;;;;;;12.10;10.70;;;14.80;99.90;;;;;;5000224;28;20508;-68
2021/08/01 01:32:49;;;;;;;12.40;11.40;;;14.80;99.90;;;;;;5000190;28;20501;-68
2021/08/01 01:35:18;;;;;;;13.37;12.23;;;14.70;99.90;;;;;;5000465;28;20724;-68
2021/08/01 01:37:51;;;;;;;13.30;12.03;;;14.80;99.90;;;;;;5000022;28;20527;-68
2021/08/01 02:18:06;;;;;;;14.17;12.70;;;15.00;99.90;;;;;;3696037;23;20853;-69
2021/08/01 02:20:40;;;;;;;18.70;12.87;;;15.00;99.90;;;;;;5000442;28;20515;-69
2021/08/01 02:23:10;;;;;;;14.87;13.47;;;15.10;99.90;;;;;;4998713;28;20455;-69
2021/08/01 02:25:41;;;;;;;12.80;11.60;;;15.10;99.90;;;;;;4998996;28;20456;-69
2021/08/01 02:28:08;;;;;;;14.40;13.03;;;15.00;99.90;;;;;;4999272;28;20465;-69
2021/08/01 02:30:37;;;;;;;12.73;11.50;;;15.00;99.90;;;;;;4999182;28;20535;-69
2021/08/01 02:33:07;;;;;;;13.53;12.13;;;15.00;99.90;;;;;;4998801;28;20497;-69
2021/08/01 02:35:35;;;;;;;13.47;12.37;;;15.00;99.90;;;;;;4998881;28;20527;-69
2021/08/01 02:38:04;;;;;;;13.70;12.30;;;15.00;99.90;;;;;;4999084;28;20472;-69
2021/08/01 02:40:36;;;;;;;12.77;11.57;;;14.90;99.90;;;;;;4979683;28;20470;-69
2021/08/01 02:43:06;;;;;;;14.00;12.67;;;15.00;99.90;;;;;;4979372;28;20465;-69
2021/08/01 02:45:35;;;;;;;14.60;12.97;;;15.10;99.90;;;;;;4979457;28;20954;-69
2021/08/01 02:48:04;;;;;;;13.00;11.80;;;15.10;99.90;;;;;;4979009;28;20850;-69
2021/08/01 02:50:37;;;;;;;14.10;12.70;;;15.00;99.90;;;;;;4979362;28;20540;-69
2021/08/01 02:53:09;;;;;;;12.87;11.77;;;15.00;99.90;;;;;;4978997;28;21034;-69
2021/08/01 02:55:38;;;;;;;14.00;12.60;;;15.10;99.90;;;;;;4979131;28;20470;-69
2021/08/01 02:58:07;;;;;;;13.97;12.70;;;15.10;99.90;;;;;;4978534;28;20465;-69
2021/08/01 03:00:35;;;;;;;13.10;12.00;;;15.10;99.90;;;;;;4979430;28;20960;-69
2021/08/01 03:03:05;;;;;;;13.83;12.53;;;15.20;99.90;;;;;;4978037;28;20477;-69
2021/08/01 03:05:35;;;;;;;12.57;11.50;;;15.20;99.90;;;;;;4992075;28;20472;-69
2021/08/01 03:08:02;;;;;;;15.37;13.77;;;15.10;99.90;;;;;;4997824;28;20457;-69
2021/08/01 03:48:12;;;;;;;18.63;16.83;;;15.30;99.90;;;;;;5255610;23;20938;-69
2021/08/01 03:50:40;;;;;;;19.07;17.10;;;15.40;99.90;;;;;;5017781;28;20489;-70
2021/08/01 03:53:07;;;;;;;18.80;16.83;;;15.40;99.90;;;;;;5017852;28;20531;-69
2021/08/01 03:55:35;;;;;;;18.63;17.00;;;15.40;99.90;;;;;;5017630;28;20464;-69
2021/08/01 03:58:02;;;;;;;19.80;17.70;;;15.40;99.90;;;;;;5017753;28;20904;-70
2021/08/01 04:00:29;;;;;;;20.43;18.40;;;15.30;99.90;;;;;;5017438;28;20486;-70
2021/08/01 04:02:56;;;;;;;18.60;16.87;;;15.40;99.90;;;;;;5012835;28;20544;-70
2021/08/01 04:05:24;;;;;;;19.40;17.60;;;15.40;99.90;;;;;;4992378;28;20465;-70
2021/08/01 04:07:51;;;;;;;19.80;17.80;;;15.40;99.90;;;;;;5013006;28;20452;-71
2021/08/01 04:10:18;;;;;;;20.30;17.90;;;15.40;99.90;;;;;;5015921;28;20467;-70
2021/08/01 04:12:45;;;;;;;20.03;18.13;;;15.40;99.90;;;;;;5009919;28;20814;-70
2021/08/01 04:15:15;;;;;;;21.53;19.37;;;15.50;99.90;;;;;;5013244;28;20526;-71
2021/08/01 04:17:42;;;;;;;22.37;20.17;;;15.50;99.90;;;;;;5013134;28;20491;-71
2021/08/01 04:20:10;;;;;;;24.73;22.33;;;15.40;99.90;;;;;;5017080;28;20468;-70
2021/08/01 04:22:42;;;;;;;23.97;21.70;;;15.40;99.90;;;;;;5009290;28;20515;-70
2021/08/01 04:25:09;;;;;;;24.97;22.47;;;15.50;99.90;;;;;;5005188;28;20472;-70
2021/08/01 04:27:39;;;;;;;24.40;22.10;;;15.60;99.90;;;;;;5012631;28;20459;-70
2021/08/01 04:30:07;;;;;;;23.93;21.73;;;15.60;99.90;;;;;;5009691;28;20878;-70
2021/08/01 04:32:34;;;;;;;23.87;21.47;;;15.60;99.90;;;;;;5009349;28;20466;-70
2021/08/01 04:35:01;;;;;;;25.57;22.97;;;15.60;99.90;;;;;;5011945;28;20753;-70
2021/08/01 04:37:29;;;;;;;26.33;23.57;;;15.60;99.90;;;;;;5012534;28;20463;-70
2021/08/01 04:39:57;;;;;;;28.60;25.53;;;15.50;99.90;;;;;;5010795;28;20464;-70
2021/08/01 04:42:24;;;;;;;27.27;24.67;;;15.50;99.90;;;;;;5009067;28;20913;-70
2021/08/01 04:44:51;;;;;;;28.87;23.87;;;15.50;99.90;;;;;;5010427;28;20527;-70
2021/08/01 04:47:18;;;;;;;26.10;23.70;;;15.50;99.90;;;;;;5012315;28;20770;-71
2021/08/01 04:49:45;;;;;;;26.80;24.20;;;15.50;99.90;;;;;;5012174;28;20546;-71
2021/08/01 04:52:17;;;;;;;25.43;22.93;;;15.50;99.90;;;;;;5008456;28;20472;-71
2021/08/01 04:54:44;;;;;;;26.83;24.20;;;15.60;99.90;;;;;;5009031;28;20464;-71
2021/08/01 04:57:13;;;;;;;26.93;23.83;;;15.60;99.90;;;;;;5012679;28;20468;-71
2021/08/01 04:59:40;;;;;;;25.47;22.97;;;15.60;99.90;;;;;;5012511;28;20467;-71
2021/08/01 05:02:07;;;;;;;27.60;23.67;;;15.60;99.90;;;;;;5020221;28;20463;-70
2021/08/01 05:04:34;;;;;;;24.67;22.07;;;15.60;99.90;;;;;;5009481;28;20496;-70
2021/08/01 05:07:01;;;;;;;26.80;24.10;;;15.50;99.90;;;;;;5019150;28;20463;-70
2021/08/01 05:09:28;;;;;;;24.73;21.93;;;15.60;99.90;;;;;;5019927;28;20886;-70
2021/08/01 05:11:55;;;;;;;25.90;23.50;;;15.60;99.90;;;;;;5020409;28;20463;-70
2021/08/01 05:14:24;;;;;;;26.37;23.87;;;15.60;99.90;;;;;;5019724;28;20466;-70
2021/08/01 05:16:51;;;;;;;27.50;24.90;;;15.60;99.90;;;;;;5020173;28;20460;-70
2021/08/01 05:19:18;;;;;;;25.67;23.07;;;15.70;99.90;;;;;;5020078;28;20592;-70
2021/08/01 05:21:45;;;;;;;25.67;23.10;;;15.60;99.90;;;;;;5019279;28;20442;-70
2021/08/01 05:24:12;;;;;;;26.10;23.67;;;15.70;99.90;;;;;;5019816;28;20869;-70
2021/08/01 05:26:39;;;;;;;25.30;22.97;;;15.80;99.90;;;;;;5019901;28;20460;-70
2021/08/01 05:29:08;;;;;;;21.73;19.67;;;15.80;99.90;;;;;;5019595;28;20518;-70
2021/08/01 05:31:38;;;;;;;20.07;18.20;;;15.70;99.90;;;;;;5020067;28;20460;-69
2021/08/01 05:34:10;;;;;;;19.50;17.90;;;15.70;99.90;;;;;;5019372;28;20936;-69
2021/08/01 05:36:37;;;;;;;20.70;18.80;;;15.70;99.90;;;;;;5019478;28;20522;-70
2021/08/01 05:39:04;;;;;;;21.07;18.87;;;15.60;99.90;;;;;;5019000;28;20457;-69
2021/08/01 05:41:37;;;;;;;19.37;17.50;;;15.60;99.90;;;;;;5019743;28;20468;-69
2021/08/01 05:44:07;;;;;;;20.17;18.13;;;15.60;99.90;;;;;;5020191;28;20901;-69
2021/08/01 05:46:36;;;;;;;18.23;16.43;;;15.60;99.90;;;;;;5019583;28;20540;-69
2021/08/01 05:49:03;;;;;;;19.47;17.80;;;15.60;99.90;;;;;;5007952;28;20555;-69
2021/08/01 05:51:30;;;;;;;19.10;17.20;;;15.50;99.90;;;;;;5000119;28;20473;-69
2021/08/01 05:53:57;;;;;;;19.67;17.77;;;15.50;99.90;;;;;;4999768;28;20559;-69
2021/08/01 05:56:24;;;;;;;20.90;18.90;;;15.50;99.90;;;;;;4999708;28;20968;-69
2021/08/01 05:58:51;;;;;;;20.30;18.60;;;15.50;99.90;;;;;;4999531;28;20443;-69
2021/08/01 06:01:18;;;;;;;20.97;19.00;;;15.50;99.90;;;;;;4999689;28;20831;-69
2021/08/01 06:03:47;;;;;;;22.50;20.30;;;15.50;99.90;;;;;;4992996;28;20971;-69
2021/08/01 06:06:19;;;;;;;21.50;19.50;;;15.50;99.90;;;;;;4998277;28;20495;-69
2021/08/01 06:08:51;;;;;;;19.57;17.90;;;15.70;99.90;;;;;;4999039;28;20435;-69
2021/08/01 06:11:19;;;;;;;21.57;19.57;;;15.70;99.90;;;;;;4999701;28;20465;-69
2021/08/01 06:13:46;;;;;;;26.03;19.53;;;15.70;99.90;;;;;;5000104;28;20485;-69
2021/08/01 06:16:14;;;;;;;20.87;19.07;;;15.80;99.90;;;;;;4999075;28;20469;-69
2021/08/01 06:18:43;;;;;;;19.80;18.00;;;15.80;99.90;;;;;;4999050;28;20464;-69
2021/08/01 06:21:14;;;;;;;22.27;20.07;;;15.90;99.90;;;;;;4998797;28;20556;-69
2021/08/01 06:23:42;;;;;;;20.90;19.00;;;15.90;99.90;;;;;;4999556;28;20556;-68
2021/08/01 06:26:10;;;;;;;21.27;19.07;;;16.00;99.90;;;;;;4998863;28;20464;-68
2021/08/01 06:28:37;;;;;;;22.20;20.13;;;16.00;99.90;;;;;;4999528;28;20469;-68
2021/08/01 06:31:05;;;;;;;20.90;18.37;;;16.10;99.90;;;;;;4999038;28;20465;-68
2021/08/01 06:33:33;;;;;;;24.17;21.97;;;16.30;99.90;;;;;;4998811;28;20467;-68
2021/08/01 06:36:01;;;;;;;24.53;22.40;;;16.50;99.90;;;;;;4998751;28;20468;-68
2021/08/01 06:38:30;;;;;;;24.50;22.20;;;16.60;99.90;;;;;;4998991;28;20794;-68
2021/08/01 06:40:58;;;;;;;25.50;23.00;;;16.80;99.90;;;;;;4998716;28;20985;-68
2021/08/01 06:43:25;;;;;;;25.53;23.13;;;16.90;99.90;;;;;;4998972;28;20457;-68
2021/08/01 06:45:52;;;;;;;25.30;22.90;;;16.70;99.90;;;;;;4998584;28;20539;-68
2021/08/01 06:48:22;;;;;;;25.37;23.07;;;16.80;99.90;;;;;;4998513;28;20499;-68
2021/08/01 06:50:49;;;;;;;27.90;25.03;;;16.60;99.90;;;;;;4998759;28;20483;-68
2021/08/01 06:53:20;;;;;;;29.77;27.17;;;16.60;99.90;;;;;;4999175;28;20960;-67
2021/08/01 06:55:48;;;;;;;28.00;25.30;;;16.60;99.90;;;;;;4998331;28;20465;-67
2021/08/01 06:58:18;;;;;;;30.67;27.70;;;16.60;99.90;;;;;;4998605;28;20439;-67
2021/08/01 07:00:46;;;;;;;30.87;27.80;;;16.50;99.90;;;;;;4998602;28;20492;-67
2021/08/01 07:03:13;;;;;;;31.00;27.97;;;16.70;99.90;;;;;;4993871;28;20505;-67
2021/08/01 07:05:40;;;;;;;30.97;27.33;;;16.70;99.90;;;;;;4981013;28;20469;-67
2021/08/01 07:08:08;;;;;;;30.70;27.50;;;16.70;99.90;;;;;;4978316;28;21237;-67
2021/08/01 07:10:35;;;;;;;30.13;27.00;;;16.70;99.90;;;;;;4978388;28;20782;-67
2021/08/01 07:13:07;;;;;;;32.10;27.20;;;16.80;99.90;;;;;;4978975;28;20472;-67
2021/08/01 07:15:35;;;;;;;28.93;25.67;;;17.00;99.90;;;;;;4979411;28;20840;-67
2021/08/01 07:18:02;;;;;;;27.13;24.33;;;17.40;99.90;;;;;;4979148;28;20461;-66
2021/08/01 07:20:30;;;;;;;28.33;25.37;;;17.60;99.90;;;;;;4978715;28;20462;-66
2021/08/01 07:22:58;;;;;;;24.03;20.97;;;17.80;99.90;;;;;;4978461;28;20440;-66
2021/08/01 07:25:25;;;;;;;24.10;20.43;;;17.90;99.90;;;;;;4978488;28;20469;-65
2021/08/01 07:27:53;;;;;;;20.83;18.73;;;18.10;99.90;;;;;;4978486;28;20751;-65
2021/08/01 07:30:22;;;;;;;20.70;18.30;;;18.50;99.90;;;;;;4978238;28;20469;-64
2021/08/01 07:32:49;;;;;;;21.37;19.07;;;18.80;99.90;;;;;;4978653;28;20470;-64
2021/08/01 07:35:17;;;;;;;19.20;17.30;;;18.80;99.90;;;;;;4997795;28;20532;-63
2021/08/01 07:37:53;;;;;;;14.63;13.20;;;19.30;99.90;;;;;;4998429;28;20469;-63
2021/08/01 07:40:22;;;;;;;12.13;10.97;;;19.50;99.90;;;;;;4997416;28;20446;-63
2021/08/01 07:42:49;;;;;;;11.93;10.73;;;19.50;99.90;;;;;;4997605;28;20531;-62
2021/08/01 07:45:25;;;;;;;12.93;10.00;;;19.80;99.90;;;;;;4998424;28;20457;-62
2021/08/01 07:47:59;;;;;;;12.07;9.60;;;20.10;99.90;;;;;;4997868;28;20826;-62
2021/08/01 07:50:29;;;;;;;12.97;9.93;;;20.40;99.90;;;;;;4997654;28;20504;-62
2021/08/01 07:53:00;;;;;;;14.23;8.77;;;20.40;99.90;;;;;;4998354;28;20527;-62
2021/08/01 07:55:29;;;;;;;9.60;7.90;;;20.10;99.90;;;;;;4995498;28;20502;-62
2021/08/01 07:57:57;;;;;;;8.07;7.37;;;19.80;99.90;;;;;;4996925;28;20511;-62
2021/08/01 08:00:26;;;;;;;8.90;7.80;;;20.00;99.90;;;;;;4997351;28;20524;-62
2021/08/01 08:02:53;;;;;;;11.00;6.47;;;20.20;99.90;;;;;;4993029;28;20480;-61
2021/08/01 08:05:27;;;;;;;9.17;7.00;;;20.30;99.90;;;;;;4986674;28;20476;-61
2021/08/01 08:07:57;;;;;;;8.80;6.00;;;20.50;99.90;;;;;;4981186;28;20945;-61
2021/08/01 08:10:26;;;;;;;11.43;6.07;;;20.60;99.90;;;;;;4994059;28;20465;-61
2021/08/01 08:12:53;;;;;;;8.67;6.00;;;20.90;99.90;;;;;;4993639;28;20465;-61
2021/08/01 08:15:21;;;;;;;5.50;5.00;;;20.90;99.90;;;;;;4977800;28;20839;-62
2021/08/01 08:17:49;;;;;;;6.73;5.90;;;20.30;99.90;;;;;;4977287;28;20466;-61
2021/08/01 08:20:16;;;;;;;7.83;4.63;;;19.80;99.90;;;;;;4978037;28;20473;-60
2021/08/01 08:22:46;;;;;;;5.70;5.20;;;20.30;99.90;;;;;;4991765;28;20524;-61
2021/08/01 08:25:13;;;;;;;5.07;4.40;;;20.90;99.90;;;;;;4997786;28;20461;-61
2021/08/01 08:27:40;;;;;;;5.47;4.70;;;21.10;99.90;;;;;;4995893;28;20833;-61
2021/08/01 08:30:12;;;;;;;6.97;4.00;;;20.80;99.90;;;;;;4997049;28;20564;-60
2021/08/01 08:32:39;;;;;;;4.83;3.60;;;20.70;99.90;;;;;;4997215;28;20824;-61
2021/08/01 08:35:10;;;;;;;4.97;4.47;;;21.10;99.90;;;;;;4997207;28;20497;-61
2021/08/01 08:37:47;;;;;;;4.63;4.00;;;21.50;99.90;;;;;;4996434;28;20447;-61
2021/08/01 08:40:18;;;;;;;5.77;4.27;;;22.30;98.90;;;;;;4979787;28;20552;-60
2021/08/01 08:42:46;;;;;;;5.50;4.27;;;22.50;97.40;;;;;;4977900;28;20472;-60
2021/08/01 08:45:16;;;;;;;4.83;4.40;;;22.50;96.40;;;;;;4978048;28;20564;-59
2021/08/01 08:47:45;;;;;;;6.10;5.20;;;22.90;97.70;;;;;;4977988;28;20512;-60
2021/08/01 08:50:15;;;;;;;7.70;4.87;;;23.20;95.00;;;;;;4977571;28;20469;-61
2021/08/01 08:52:44;;;;;;;8.80;5.07;;;22.30;94.80;;;;;;4977535;28;20915;-59
2021/08/01 08:55:13;;;;;;;5.37;3.90;;;22.30;95.70;;;;;;4978689;28;20823;-59
2021/08/01 08:57:46;;;;;;;5.30;4.20;;;22.80;96.30;;;;;;4981770;28;20894;-60
2021/08/01 09:00:15;;;;;;;5.10;4.37;;;23.40;93.20;;;;;;4981277;28;20899;-60
2021/08/01 09:02:45;;;;;;;4.80;4.10;;;23.30;92.40;;;;;;4979990;28;20476;-59
2021/08/01 09:05:19;;;;;;;5.87;5.13;;;23.40;91.10;;;;;;4990730;28;20563;-59
2021/08/01 09:07:46;;;;;;;4.93;4.53;;;23.30;91.70;;;;;;4997638;28;20908;-60
2021/08/01 09:10:34;;;;;;;6.17;4.40;;;22.90;88.60;;;;;;4999662;28;20461;-58
2021/08/01 09:13:02;;;;;;;7.50;4.40;;;21.70;90.90;;;;;;5000116;28;20453;-58
2021/08/01 09:15:30;;;;;;;5.27;4.77;;;21.70;93.80;;;;;;5000309;28;20467;-56
2021/08/01 09:18:00;;;;;;;5.37;4.57;;;21.50;94.10;;;;;;5000747;28;20499;-59
2021/08/01 09:20:35;;;;;;;5.43;4.93;;;22.40;95.40;;;;;;4999953;28;20778;-60
2021/08/01 09:23:08;;;;;;;5.37;4.87;;;22.70;92.30;;;;;;5000117;28;20817;-60
2021/08/01 09:25:36;;;;;;;6.30;5.03;;;21.90;91.60;;;;;;5000266;28;20468;-58
2021/08/01 09:28:12;;;;;;;8.43;6.03;;;21.90;93.80;;;;;;5001029;28;20531;-59
2021/08/01 09:30:50;;;;;;;6.47;4.93;;;22.80;93.40;;;;;;5000345;28;20739;-60
2021/08/01 09:33:20;;;;;;;5.70;5.20;;;23.20;90.30;;;;;;5001193;28;20469;-59
2021/08/01 09:36:05;;;;;;;5.50;4.50;;;23.60;88.00;;;;;;5000554;28;20498;-57
2021/08/01 09:38:47;;;;;;;5.43;4.83;;;22.80;88.50;;;;;;4999657;28;20551;-54
2021/08/01 09:41:21;;;;;;;6.43;5.83;;;22.40;90.80;;;;;;5000588;28;20897;-57
2021/08/01 09:43:50;;;;;;;7.30;5.90;;;21.70;91.30;;;;;;5000662;28;20479;-57
2021/08/01 09:46:18;;;;;;;6.27;5.53;;;22.20;92.50;;;;;;5000005;28;20824;-59
2021/08/01 09:48:46;;;;;;;7.10;6.40;;;22.00;91.60;;;;;;5008031;28;20852;-59
2021/08/01 09:51:15;;;;;;;7.13;6.47;;;22.00;90.30;;;;;;5019482;28;20507;-57
2021/08/01 09:53:47;;;;;;;7.73;6.73;;;21.20;91.30;;;;;;5019745;28;20470;-59
2021/08/01 09:56:19;;;;;;;6.50;5.40;;;21.10;92.40;;;;;;5019667;28;20518;-59
2021/08/01 09:58:48;;;;;;;5.40;4.90;;;21.80;91.70;;;;;;5019201;28;20750;-60
2021/08/01 10:01:16;;;;;;;6.90;5.87;;;22.70;90.60;;;;;;5019631;28;20522;-58
2021/08/01 10:03:44;;;;;;;7.23;6.40;;;22.90;89.80;;;;;;5011840;28;20582;-58
2021/08/01 10:06:16;;;;;;;6.13;5.53;;;23.50;92.30;;;;;;5015474;28;20909;-58
2021/08/01 10:08:44;;;;;;;8.20;6.67;;;24.20;90.00;;;;;;5019100;28;20961;-58
2021/08/01 10:11:14;;;;;;;6.47;5.97;;;24.20;87.70;;;;;;5018727;28;20464;-59
2021/08/01 10:13:45;;;;;;;8.10;6.97;;;23.90;83.60;;;;;;5019112;28;20885;-58
2021/08/01 10:16:12;;;;;;;6.70;5.60;;;23.00;87.60;;;;;;5018903;28;20496;-55
2021/08/01 10:18:40;;;;;;;6.97;6.17;;;22.60;89.80;;;;;;5019541;28;20468;-53
2021/08/01 10:21:08;;;;;;;9.70;5.43;;;22.70;89.10;;;;;;5018865;28;20859;-54
2021/08/01 10:23:43;;;;;;;9.07;6.53;;;23.00;90.50;;;;;;5019462;28;20464;-57
2021/08/01 10:26:11;;;;;;;7.13;6.20;;;23.90;88.40;;;;;;5018622;28;20526;-56
2021/08/01 10:28:42;;;;;;;6.30;5.80;;;23.70;85.90;;;;;;5019154;28;20786;-57
2021/08/01 10:31:12;;;;;;;6.43;5.93;;;24.20;84.20;;;;;;5018656;28;20503;-56
2021/08/01 10:33:46;;;;;;;6.50;5.53;;;24.00;85.10;;;;;;5019338;28;20885;-54
2021/08/01 10:36:21;;;;;;;6.50;5.97;;;24.10;81.60;;;;;;5018062;28;20930;-56
2021/08/01 10:38:51;;;;;;;6.53;5.80;;;24.50;79.00;;;;;;5018565;28;20525;-56
2021/08/01 10:41:22;;;;;;;5.33;4.93;;;25.00;79.80;;;;;;5018232;28;20460;-57
2021/08/01 10:43:50;;;;;;;5.77;5.20;;;24.50;77.90;;;;;;5019045;28;20445;-58
2021/08/01 10:46:19;;;;;;;5.53;5.03;;;23.90;78.40;;;;;;5017847;28;20438;-57
2021/08/01 10:48:48;;;;;;;7.17;4.73;;;23.40;77.30;;;;;;5009210;28;20492;-58
2021/08/01 10:51:16;;;;;;;6.80;6.10;;;23.50;78.60;;;;;;4998395;28;20469;-56
2021/08/01 10:53:45;;;;;;;6.57;6.03;;;23.60;81.20;;;;;;4998871;28;20532;-58
2021/08/01 10:56:34;;;;;;;7.00;6.13;;;23.60;81.50;;;;;;4998119;28;20501;-57
2021/08/01 10:59:02;;;;;;;6.93;6.07;;;23.40;81.30;;;;;;4998879;28;20528;-57
2021/08/01 11:01:29;;;;;;;6.90;6.37;;;23.60;82.10;;;;;;4998883;28;20473;-55
2021/08/01 11:04:29;;;;;;;7.13;6.43;;;24.00;80.50;;;;;;4989493;28;20543;-57
2021/08/01 11:06:58;;;;;;;7.03;6.00;;;24.60;80.20;;;;;;4995619;28;20472;-57
2021/08/01 11:09:28;;;;;;;7.23;4.90;;;24.80;77.90;;;;;;4998306;28;20461;-57
2021/08/01 11:12:28;;;;;;;6.17;5.63;;;24.60;75.70;;;;;;4998200;28;20780;-57
2021/08/01 11:14:58;;;;;;;6.03;5.53;;;24.80;75.40;;;;;;4978900;28;20556;-56
2021/08/01 11:18:08;;;;;;;6.83;5.20;;;24.80;75.30;;;;;;4978463;28;20466;-58
2021/08/01 11:20:48;;;;;;;5.30;4.57;;;24.40;74.30;;;;;;4978948;28;20462;-57
2021/08/01 11:23:15;;;;;;;5.37;4.97;;;24.50;74.80;;;;;;4998600;28;20944;-55
2021/08/01 11:26:13;;;;;;;8.40;5.10;;;24.80;74.50;;;;;;4998419;28;20886;-56
2021/08/01 11:28:43;;;;;;;7.77;5.27;;;25.60;72.70;;;;;;4954793;28;20477;-55
2021/08/01 11:31:18;;;;;;;6.33;5.40;;;25.20;72.30;;;;;;4990558;28;20890;-56
2021/08/01 11:33:47;;;;;;;5.77;5.17;;;25.00;70.80;;;;;;4997812;28;20531;-55
2021/08/01 11:36:31;;;;;;;5.90;4.60;;;25.60;71.50;;;;;;4997960;28;20497;-54
2021/08/01 11:39:04;;;;;;;7.50;4.60;;;25.50;69.70;;;;;;4997301;28;20540;-53
2021/08/01 11:41:43;;;;;;;5.20;4.70;;;25.90;67.80;;;;;;4997353;28;20889;-56
2021/08/01 11:44:22;;;;;;;5.87;5.27;;;26.10;65.20;;;;;;4990391;28;20471;-57
2021/08/01 11:47:10;;;;;;;5.37;5.00;;;25.80;68.20;;;;;;4997989;28;20464;-56
2021/08/01 11:49:45;;;;;;;5.70;5.30;;;26.10;67.50;;;;;;4996915;28;20960;-55
2021/08/01 12:29:05;;;;;;;5.93;4.30;;;25.80;67.60;;;;;;3178955;23;20500;-58
2021/08/01 12:31:32;;;;;;;4.90;4.60;;;26.10;65.80;;;;;;5000628;28;20464;-58
2021/08/01 12:34:05;;;;;;;5.67;4.53;;;24.90;68.10;;;;;;5000860;28;20469;-57
2021/08/01 13:12:16;;;;;;;7.10;4.70;;;27.10;64.10;;;;;;2675869;23;20500;-58
2021/08/01 13:14:46;;;;;;;5.00;4.60;;;26.90;62.10;;;;;;5000839;28;20467;-57
2021/08/01 13:17:18;;;;;;;5.50;5.00;;;26.70;63.30;;;;;;5000337;28;20472;-58
2021/08/01 13:19:47;;;;;;;7.93;4.70;;;26.90;64.90;;;;;;5001128;28;20468;-60
2021/08/01 13:22:18;;;;;;;4.93;4.53;;;25.40;66.50;;;;;;5000170;28;20519;-57
2021/08/01 13:24:46;;;;;;;4.53;4.10;;;24.60;69.30;;;;;;5000675;28;20465;-58
2021/08/01 13:27:21;;;;;;;7.63;4.80;;;23.70;69.80;;;;;;5000515;28;20468;-55
2021/08/01 13:29:52;;;;;;;7.37;4.80;;;23.10;72.70;;;;;;5000474;28;20476;-58
2021/08/01 13:32:20;;;;;;;7.87;5.80;;;23.10;77.10;;;;;;5000389;28;20472;-56
2021/08/01 13:34:56;;;;;;;5.93;5.43;;;24.50;75.10;;;;;;5000163;28;20755;-57
2021/08/01 13:37:26;;;;;;;4.40;4.10;;;25.70;71.30;;;;;;5000490;28;20684;-58
2021/08/01 13:39:55;;;;;;;5.30;4.63;;;26.30;70.30;;;;;;4999723;28;20817;-58
2021/08/01 13:42:37;;;;;;;4.80;4.20;;;27.00;63.60;;;;;;4999153;28;20469;-56
2021/08/01 13:45:09;;;;;;;5.40;4.40;;;26.40;62.90;;;;;;5000364;28;20469;-58
2021/08/01 13:47:39;;;;;;;4.90;4.50;;;26.50;62.20;;;;;;5000267;28;20461;-56
2021/08/01 13:50:09;;;;;;;5.03;4.63;;;25.70;63.40;;;;;;4999491;28;20524;-58
2021/08/01 13:52:39;;;;;;;4.93;4.53;;;26.40;62.70;;;;;;4999726;28;20461;-59
2021/08/01 13:55:10;;;;;;;4.60;4.30;;;26.20;61.20;;;;;;5000071;28;20551;-59
2021/08/01 13:57:39;;;;;;;5.30;4.80;;;25.80;61.80;;;;;;4999585;28;20472;-58
2021/08/01 14:00:14;;;;;;;5.20;4.80;;;26.00;62.20;;;;;;4999344;28;20464;-59
2021/08/01 14:02:46;;;;;;;6.23;4.47;;;26.60;61.30;;;;;;4997300;28;20812;-59
2021/08/01 14:05:13;;;;;;;5.10;4.70;;;26.10;60.60;;;;;;4986502;28;20488;-58
2021/08/01 14:07:42;;;;;;;4.60;4.30;;;25.70;60.70;;;;;;4998810;28;20469;-57
2021/08/01 14:10:10;;;;;;;5.83;5.03;;;24.70;62.50;;;;;;4998737;28;20457;-55
2021/08/01 14:12:39;;;;;;;5.20;4.67;;;24.90;66.90;;;;;;4998929;28;20492;-56
2021/08/01 14:15:09;;;;;;;5.27;4.77;;;25.70;65.50;;;;;;4999029;28;20531;-58
2021/08/01 14:17:36;;;;;;;5.30;4.93;;;24.90;64.10;;;;;;4998078;28;20465;-58
2021/08/01 14:20:04;;;;;;;5.57;5.03;;;24.50;67.10;;;;;;4998086;28;20461;-59
2021/08/01 14:22:34;;;;;;;5.73;5.23;;;25.40;67.10;;;;;;4998983;28;20523;-58
2021/08/01 14:25:01;;;;;;;5.93;5.40;;;25.50;65.70;;;;;;4997593;28;20548;-59
2021/08/01 14:27:28;;;;;;;5.90;5.50;;;24.90;65.70;;;;;;4997765;28;20473;-59
2021/08/01 14:30:06;;;;;;;6.23;5.73;;;23.80;67.30;;;;;;4998476;28;20515;-59
2021/08/01 14:32:38;;;;;;;6.27;5.70;;;23.30;70.80;;;;;;4997461;28;20450;-58
2021/08/01 14:35:06;;;;;;;5.80;5.37;;;23.60;72.80;;;;;;4998517;28;20469;-57
2021/08/01 14:37:34;;;;;;;5.20;4.73;;;24.50;72.80;;;;;;4998085;28;20467;-59
2021/08/01 14:40:03;;;;;;;6.33;5.80;;;25.20;71.40;;;;;;4997660;28;20473;-58
2021/08/01 14:42:33;;;;;;;5.00;4.60;;;25.20;69.80;;;;;;4998442;28;20477;-58
2021/08/01 14:45:06;;;;;;;6.07;5.57;;;25.50;68.60;;;;;;4998214;28;20476;-58
2021/08/01 14:47:35;;;;;;;5.40;4.90;;;25.40;68.30;;;;;;4998291;28;20468;-59
2021/08/01 14:50:15;;;;;;;7.80;6.10;;;25.30;68.90;;;;;;4998904;28;20473;-58
2021/08/01 14:53:00;;;;;;;6.10;5.60;;;25.00;69.30;;;;;;4996579;28;20472;-56
2021/08/01 14:55:32;;;;;;;5.57;5.10;;;24.60;70.00;;;;;;4998360;28;20790;-57
2021/08/01 14:58:10;;;;;;;5.63;5.03;;;24.00;70.80;;;;;;4998638;28;20435;-56
2021/08/01 15:00:49;;;;;;;6.10;5.60;;;23.40;72.60;;;;;;4998636;28;20885;-56
2021/08/01 15:03:41;;;;;;;5.13;4.63;;;22.90;74.80;;;;;;4990707;28;20439;-58
2021/08/01 15:06:09;;;;;;;4.73;4.33;;;22.80;75.80;;;;;;4995298;28;20920;-58
2021/08/01 15:08:58;;;;;;;5.30;4.80;;;22.50;76.50;;;;;;4996730;28;20464;-58
2021/08/01 15:43:35;;;;;;;8.60;7.80;;;17.80;99.90;;;;;;5508508;23;20484;31
2021/08/01 16:20:37;;;;;;;9.20;8.37;;;20.20;99.90;;;;;;5130816;23;20484;-64
2021/08/01 16:23:08;;;;;;;9.40;8.50;;;19.80;99.90;;;;;;5001258;28;20465;-63
2021/08/01 16:25:35;;;;;;;9.43;8.50;;;19.50;99.90;;;;;;5001965;28;20499;-63
2021/08/01 16:28:04;;;;;;;8.17;7.47;;;19.50;99.90;;;;;;5002250;28;20491;-63